createdAt,value
2022-12-04T00:01:55.646Z,8.37
2022-12-04T00:06:59.034Z,9.00
2022-12-04T00:12:01.625Z,8.13
2022-12-04T00:17:04.071Z,8.10
2022-12-04T00:22:06.568Z,8.20
2022-12-04T00:27:08.983Z,8.43
2022-12-04T00:32:11.458Z,8.47
2022-12-04T00:37:13.918Z,8.33
2022-12-04T00:42:16.353Z,8.30
2022-12-04T00:47:18.992Z,8.40
2022-12-04T00:52:21.710Z,8.17
2022-12-04T00:57:24.187Z,7.80
2022-12-04T01:02:26.760Z,7.80
2022-12-04T01:07:29.361Z,8.10
2022-12-04T01:12:31.838Z,8.03
2022-12-04T01:17:34.291Z,7.80
2022-12-04T01:22:36.706Z,8.00
2022-12-04T01:27:39.124Z,8.53
2022-12-04T01:32:41.626Z,7.80
2022-12-04T01:37:44.033Z,7.90
2022-12-04T01:42:46.407Z,7.77
2022-12-04T01:47:49.283Z,7.47
2022-12-04T01:52:52.259Z,7.97
2022-12-04T01:57:54.777Z,7.47
2022-12-04T02:02:57.267Z,7.57
2022-12-04T02:08:05.654Z,7.60
2022-12-04T02:13:14.199Z,7.43
2022-12-04T02:18:34.136Z,7.50
2022-12-04T02:23:36.497Z,7.57
2022-12-04T02:29:30.003Z,7.63
2022-12-04T02:34:47.343Z,7.10
2022-12-04T02:40:01.847Z,8.23
2022-12-04T02:45:12.452Z,8.37
2022-12-04T02:50:18.483Z,8.10
2022-12-04T02:55:29.249Z,8.13
2022-12-04T03:00:33.187Z,8.10
2022-12-04T03:06:04.867Z,8.20
2022-12-04T03:11:07.390Z,8.47
2022-12-04T03:16:38.964Z,8.37
2022-12-04T03:21:50.428Z,9.10
2022-12-04T03:27:15.175Z,8.37
2022-12-04T03:32:23.294Z,8.50
2022-12-04T03:37:49.843Z,7.73
2022-12-04T03:43:06.382Z,8.40
2022-12-04T03:48:28.833Z,8.17
2022-12-04T03:53:44.386Z,8.67
2022-12-04T03:58:57.627Z,9.67
2022-12-04T04:04:04.221Z,9.10
2022-12-04T04:09:12.739Z,8.83
2022-12-04T04:14:40.528Z,9.07
2022-12-04T04:20:06.205Z,8.60
2022-12-04T04:25:16.439Z,8.20
2022-12-04T04:30:19.593Z,8.97
2022-12-04T04:35:57.810Z,9.30
2022-12-04T04:41:10.959Z,8.30
2022-12-04T04:46:20.211Z,8.23
2022-12-04T04:51:23.530Z,9.20
2022-12-04T04:56:26.167Z,9.27
2022-12-04T05:01:29.524Z,8.30
2022-12-04T05:06:32.221Z,8.43
2022-12-04T05:11:34.695Z,7.77
2022-12-04T05:16:38.714Z,7.37
2022-12-04T05:21:41.825Z,6.93
2022-12-04T05:26:44.326Z,7.60
2022-12-04T05:31:46.987Z,7.60
2022-12-04T05:36:49.728Z,7.13
2022-12-04T05:41:52.494Z,7.03
2022-12-04T05:46:54.958Z,7.13
2022-12-04T05:51:57.547Z,6.80
2022-12-04T05:57:00.194Z,7.47
2022-12-04T06:02:02.733Z,6.87
2022-12-04T06:07:05.331Z,6.83
2022-12-04T06:12:07.877Z,6.90
2022-12-04T06:17:10.254Z,6.63
2022-12-04T06:22:12.611Z,6.70
2022-12-04T06:27:30.450Z,7.43
2022-12-04T06:32:32.835Z,7.20
2022-12-04T06:37:35.510Z,7.83
2022-12-04T06:42:38.145Z,7.07
2022-12-04T06:47:40.608Z,7.10
2022-12-04T06:52:43.011Z,6.63
2022-12-04T06:57:45.390Z,6.77
2022-12-04T07:02:47.930Z,6.67
2022-12-04T07:07:50.822Z,7.20
2022-12-04T07:12:53.456Z,7.07
2022-12-04T07:17:56.057Z,7.67
2022-12-04T07:23:01.506Z,7.37
2022-12-04T07:28:08.139Z,7.40
2022-12-04T07:33:10.601Z,7.30
2022-12-04T07:38:12.959Z,7.37
2022-12-04T07:43:15.582Z,7.37
2022-12-04T07:48:18.253Z,7.30
2022-12-04T07:53:21.059Z,7.40
2022-12-04T07:58:23.626Z,7.50
2022-12-04T08:03:27.125Z,8.07
2022-12-04T08:08:30.102Z,7.20
2022-12-04T08:13:32.698Z,8.23
2022-12-04T08:18:35.517Z,8.13
2022-12-04T08:23:38.964Z,8.23
2022-12-04T08:28:42.045Z,8.97
2022-12-04T08:33:46.257Z,7.67
2022-12-04T08:38:49.435Z,7.60
2022-12-04T08:43:56.403Z,7.37
2022-12-04T08:48:59.139Z,7.30
2022-12-04T08:54:04.731Z,7.87
2022-12-04T08:59:07.272Z,7.13
2022-12-04T09:04:09.743Z,7.37
2022-12-04T09:09:12.878Z,7.47
2022-12-04T09:14:15.377Z,7.10
2022-12-04T09:19:17.847Z,6.80
2022-12-04T09:24:20.668Z,7.30
2022-12-04T09:29:23.273Z,6.90
2022-12-04T09:34:25.672Z,6.87
2022-12-04T09:39:28.106Z,6.17
2022-12-04T09:44:38.897Z,7.37
2022-12-04T09:49:49.313Z,7.43
2022-12-04T09:54:53.578Z,6.63
2022-12-04T09:59:56.505Z,7.70
2022-12-04T10:04:59.154Z,6.87
2022-12-04T10:10:28.030Z,7.83
2022-12-04T10:15:49.404Z,7.63
2022-12-04T10:21:06.012Z,7.77
2022-12-04T10:26:15.756Z,7.73
2022-12-04T10:31:18.497Z,7.87
2022-12-04T10:36:25.593Z,8.53
2022-12-04T10:41:52.096Z,8.37
2022-12-04T10:47:00.775Z,8.77
2022-12-04T10:52:04.001Z,8.27
2022-12-04T10:57:11.494Z,8.50
2022-12-04T11:02:35.433Z,8.63
2022-12-04T11:07:46.821Z,8.83
2022-12-04T11:13:00.235Z,8.63
2022-12-04T11:18:15.513Z,9.27
2022-12-04T11:23:18.333Z,8.73
2022-12-04T11:28:42.671Z,9.47
2022-12-04T11:33:49.402Z,8.00
2022-12-04T11:39:02.965Z,9.33
2022-12-04T11:44:24.559Z,8.00
2022-12-04T11:49:28.884Z,8.87
2022-12-04T11:54:46.370Z,8.50
2022-12-04T12:00:09.304Z,8.27
2022-12-04T12:05:33.424Z,7.00
2022-12-04T12:11:00.383Z,7.27
2022-12-04T12:16:17.901Z,6.97
2022-12-04T12:21:32.112Z,8.00
2022-12-04T12:26:54.893Z,7.60
2022-12-04T12:32:03.484Z,6.57
2022-12-04T12:37:11.435Z,8.33
2022-12-04T12:42:23.759Z,7.87
2022-12-04T12:47:32.090Z,7.60
2022-12-04T12:52:47.271Z,8.00
2022-12-04T12:58:14.233Z,8.13
2022-12-04T13:03:29.422Z,8.37
2022-12-04T13:08:59.727Z,8.70
2022-12-04T13:14:04.027Z,8.03
2022-12-04T13:19:21.945Z,7.33
2022-12-04T13:24:45.258Z,9.00
2022-12-04T13:30:14.440Z,8.17
2022-12-04T13:35:54.260Z,7.43
2022-12-04T13:41:03.290Z,7.03
2022-12-04T13:46:22.995Z,6.77
2022-12-04T13:51:35.477Z,8.57
2022-12-04T13:56:39.657Z,6.73
2022-12-04T14:01:46.768Z,6.30
2022-12-04T14:06:52.180Z,6.37
2022-12-04T14:12:06.209Z,6.67
2022-12-04T14:17:27.494Z,7.33
2022-12-04T14:22:36.184Z,10.83
2022-12-04T14:27:41.371Z,6.80
2022-12-04T14:32:44.821Z,6.87
2022-12-04T14:37:59.203Z,7.07
2022-12-04T14:43:02.050Z,7.27
2022-12-04T14:48:23.418Z,7.80
2022-12-04T14:53:48.228Z,10.17
2022-12-04T14:58:51.597Z,7.83
2022-12-04T15:04:03.600Z,7.43
2022-12-04T15:09:39.090Z,7.80
2022-12-04T15:14:43.423Z,8.43
2022-12-04T15:19:45.986Z,8.00
2022-12-04T15:24:48.505Z,7.70
2022-12-04T15:29:54.394Z,8.17
2022-12-04T15:35:05.831Z,7.80
2022-12-04T15:40:11.968Z,7.87
2022-12-04T15:45:14.361Z,8.43
2022-12-04T15:50:16.766Z,7.17
2022-12-04T15:55:21.780Z,8.07
2022-12-04T16:00:26.674Z,8.87
2022-12-04T16:05:37.320Z,8.60
2022-12-04T16:10:40.011Z,8.50
2022-12-04T16:15:46.312Z,8.80
2022-12-04T16:20:48.990Z,9.20
2022-12-04T16:25:53.644Z,8.63
2022-12-04T16:30:56.372Z,9.33
2022-12-04T16:35:58.882Z,9.23
2022-12-04T16:41:01.291Z,9.17
2022-12-04T16:46:03.773Z,8.50
2022-12-04T16:51:06.293Z,9.00
2022-12-04T16:56:09.375Z,9.07
2022-12-04T17:01:33.646Z,9.40
2022-12-04T17:06:36.343Z,8.87
2022-12-04T17:11:38.886Z,8.00
2022-12-04T17:16:43.674Z,8.30
2022-12-04T17:21:46.299Z,8.90
2022-12-04T17:26:48.720Z,8.90
2022-12-04T17:31:51.569Z,9.17
2022-12-04T17:36:56.309Z,7.63
2022-12-04T17:41:58.704Z,8.80
2022-12-04T17:47:01.176Z,8.50
2022-12-04T17:52:03.952Z,9.83
2022-12-04T17:57:06.476Z,9.07
2022-12-04T18:02:10.725Z,8.80
2022-12-04T18:07:13.131Z,8.97
2022-12-04T18:12:15.719Z,9.10
2022-12-04T18:17:20.823Z,8.57
2022-12-04T18:22:23.612Z,9.17
2022-12-04T18:27:26.041Z,7.67
2022-12-04T18:32:28.495Z,9.70
2022-12-04T18:37:30.949Z,8.37
2022-12-04T18:42:33.327Z,8.90
2022-12-04T18:47:36.676Z,10.13
2022-12-04T18:52:39.246Z,11.40
2022-12-04T18:57:41.923Z,10.13
2022-12-04T19:02:47.280Z,9.57
2022-12-04T19:07:50.617Z,9.57
2022-12-04T19:12:54.202Z,8.83
2022-12-04T19:17:56.593Z,8.53
2022-12-04T19:22:58.988Z,8.80
2022-12-04T19:28:02.911Z,8.37
2022-12-04T19:33:05.561Z,8.23
2022-12-04T19:38:08.059Z,7.57
2022-12-04T19:43:10.470Z,8.00
2022-12-04T19:48:12.928Z,9.27
2022-12-04T19:53:15.580Z,10.00
2022-12-04T19:58:18.534Z,9.37
2022-12-04T20:03:21.342Z,9.03
2022-12-04T20:08:24.068Z,8.47
2022-12-04T20:13:26.507Z,9.07
2022-12-04T20:18:29.161Z,8.93
2022-12-04T20:23:31.642Z,8.10
2022-12-04T20:28:34.157Z,8.03
2022-12-04T20:33:36.601Z,11.70
2022-12-04T20:38:39.825Z,9.20
2022-12-04T20:43:46.787Z,9.87
2022-12-04T20:48:51.033Z,8.63
2022-12-04T20:53:55.198Z,9.33
2022-12-04T20:59:00.059Z,8.90
2022-12-04T21:04:04.160Z,9.67
2022-12-04T21:09:16.010Z,8.60
2022-12-04T21:14:39.946Z,9.07
2022-12-04T21:19:42.656Z,8.30
2022-12-04T21:24:45.047Z,9.10
2022-12-04T21:29:47.883Z,9.17
2022-12-04T21:34:52.171Z,8.83
2022-12-04T21:39:54.873Z,9.33
2022-12-04T21:44:58.642Z,9.70
2022-12-04T21:50:01.199Z,9.37
2022-12-04T21:55:05.161Z,9.23
2022-12-04T22:00:08.438Z,8.87
2022-12-04T22:05:10.865Z,7.63
2022-12-04T22:10:13.567Z,7.63
2022-12-04T22:15:16.011Z,6.83
2022-12-04T22:20:18.603Z,5.87
2022-12-04T22:25:21.474Z,6.70
2022-12-04T22:30:25.091Z,5.87
2022-12-04T22:35:27.710Z,7.07
2022-12-04T22:40:30.300Z,6.70
2022-12-04T22:45:32.702Z,6.23
2022-12-04T22:50:35.090Z,6.17
2022-12-04T22:55:37.448Z,6.57
2022-12-04T23:00:40.018Z,6.77
2022-12-04T23:05:42.484Z,6.30
2022-12-04T23:10:44.863Z,7.17
2022-12-04T23:15:49.845Z,7.23
2022-12-04T23:20:53.086Z,7.03
2022-12-04T23:25:55.540Z,6.23
2022-12-04T23:30:58.854Z,6.57
2022-12-04T23:36:03.174Z,6.90
2022-12-04T23:41:07.476Z,6.57
2022-12-04T23:46:11.870Z,6.37
2022-12-04T23:51:16.828Z,6.63
2022-12-04T23:56:22.513Z,7.00
